createdAt,value
2023-03-22T00:02:09.567Z,10.27
2023-03-22T00:04:36.044Z,12.10
2023-03-22T00:07:02.751Z,12.07
2023-03-22T00:09:29.070Z,11.63
2023-03-22T00:11:55.711Z,11.05
2023-03-22T00:14:22.152Z,11.40
2023-03-22T00:16:49.490Z,8.38
2023-03-22T00:19:17.392Z,7.43
2023-03-22T00:21:44.907Z,6.50
2023-03-22T00:24:11.670Z,6.03
2023-03-22T00:26:38.105Z,6.50
2023-03-22T00:29:05.021Z,5.65
2023-03-22T00:31:31.920Z,5.93
2023-03-22T00:33:58.766Z,6.28
2023-03-22T00:36:25.368Z,5.35
2023-03-22T00:38:52.613Z,5.30
2023-03-22T00:41:23.648Z,5.68
2023-03-22T00:43:51.049Z,6.10
2023-03-22T00:46:19.942Z,5.63
2023-03-22T00:48:47.290Z,5.18
2023-03-22T00:51:14.595Z,5.25
2023-03-22T00:53:43.276Z,5.25
2023-03-22T00:56:14.466Z,5.30
2023-03-22T00:58:42.294Z,5.47
2023-03-22T01:01:09.130Z,5.53
2023-03-22T01:03:35.981Z,5.18
2023-03-22T01:06:02.492Z,5.07
2023-03-22T01:08:33.231Z,5.50
2023-03-22T01:11:00.775Z,5.22
2023-03-22T01:13:27.769Z,5.00
2023-03-22T01:15:54.215Z,6.25
2023-03-22T01:18:20.740Z,5.05
2023-03-22T01:20:47.105Z,5.53
2023-03-22T01:23:13.852Z,5.70
2023-03-22T01:25:40.564Z,5.43
2023-03-22T01:28:07.674Z,5.43
2023-03-22T01:30:34.522Z,6.10
2023-03-22T01:33:01.171Z,6.20
2023-03-22T01:35:27.520Z,6.35
2023-03-22T01:37:53.950Z,7.13
2023-03-22T01:40:20.827Z,7.43
2023-03-22T01:42:47.324Z,9.30
2023-03-22T01:45:16.129Z,12.43
2023-03-22T01:48:02.123Z,12.07
2023-03-22T01:50:30.012Z,12.43
2023-03-22T01:52:57.686Z,12.80
2023-03-22T01:55:26.175Z,14.00
2023-03-22T01:57:54.316Z,12.82
2023-03-22T02:00:21.086Z,13.02
2023-03-22T02:02:51.297Z,12.95
2023-03-22T02:05:20.298Z,14.25
2023-03-22T02:07:47.333Z,13.15
2023-03-22T02:10:17.791Z,11.77
2023-03-22T02:12:58.616Z,11.48
2023-03-22T02:15:35.209Z,12.73
2023-03-22T02:18:06.473Z,13.45
2023-03-22T02:20:48.047Z,14.27
2023-03-22T02:23:52.207Z,14.50
2023-03-22T02:26:59.472Z,12.45
2023-03-22T02:30:00.300Z,9.87
2023-03-22T02:32:41.089Z,9.20
2023-03-22T02:35:28.320Z,7.18
2023-03-22T02:38:13.598Z,8.07
2023-03-22T02:41:08.665Z,8.43
2023-03-22T02:43:50.541Z,8.05
2023-03-22T02:46:31.846Z,7.40
2023-03-22T02:49:19.294Z,7.18
2023-03-22T02:52:01.693Z,7.80
2023-03-22T02:55:06.181Z,7.55
2023-03-22T02:57:40.296Z,7.72
2023-03-22T03:00:12.440Z,7.82
2023-03-22T03:02:55.960Z,8.27
2023-03-22T03:05:25.395Z,7.63
2023-03-22T03:08:00.372Z,7.75
2023-03-22T03:10:27.516Z,8.27
2023-03-22T03:12:54.177Z,7.50
2023-03-22T03:15:23.611Z,7.95
2023-03-22T03:17:57.224Z,7.82
2023-03-22T03:20:34.363Z,8.55
2023-03-22T03:23:19.907Z,7.72
2023-03-22T03:26:10.571Z,7.82
2023-03-22T03:28:49.780Z,7.18
2023-03-22T03:31:27.032Z,7.60
2023-03-22T03:33:53.341Z,7.50
2023-03-22T03:36:21.973Z,7.88
2023-03-22T03:41:21.876Z,7.20
2023-03-22T03:43:49.178Z,7.90
2023-03-22T03:46:16.218Z,8.10
2023-03-22T03:48:47.105Z,8.27
2023-03-22T03:51:13.963Z,7.90
2023-03-22T03:53:40.628Z,7.53
2023-03-22T03:56:07.953Z,7.40
2023-03-22T03:58:34.523Z,8.23
2023-03-22T04:01:00.870Z,7.45
2023-03-22T04:03:27.257Z,8.63
2023-03-22T04:05:53.616Z,8.02
2023-03-22T04:08:20.198Z,7.95
2023-03-22T04:10:51.720Z,7.32
2023-03-22T04:13:21.485Z,8.50
2023-03-22T04:15:52.795Z,7.85
2023-03-22T04:18:19.596Z,7.95
2023-03-22T04:20:46.840Z,8.23
2023-03-22T04:23:13.216Z,7.82
2023-03-22T04:25:39.765Z,7.78
2023-03-22T04:28:06.125Z,8.23
2023-03-22T04:30:36.509Z,8.35
2023-03-22T04:33:07.280Z,7.90
2023-03-22T04:35:34.868Z,8.50
2023-03-22T04:38:01.756Z,7.75
2023-03-22T04:40:31.904Z,7.45
2023-03-22T04:42:59.245Z,8.10
2023-03-22T04:45:29.457Z,7.45
2023-03-22T04:47:56.322Z,7.95
2023-03-22T04:50:22.931Z,7.13
2023-03-22T04:52:50.142Z,6.88
2023-03-22T04:55:17.037Z,7.45
2023-03-22T04:57:43.634Z,7.53
2023-03-22T05:00:11.094Z,7.47
2023-03-22T05:02:41.516Z,7.35
2023-03-22T05:05:08.175Z,7.60
2023-03-22T05:07:34.711Z,7.32
2023-03-22T05:10:01.203Z,6.75
2023-03-22T05:12:27.573Z,6.75
2023-03-22T05:14:53.979Z,6.97
2023-03-22T05:17:20.716Z,6.43
2023-03-22T05:19:47.726Z,7.38
2023-03-22T05:22:14.367Z,7.78
2023-03-22T05:24:40.745Z,7.38
2023-03-22T05:27:07.060Z,6.50
2023-03-22T05:29:36.865Z,6.80
2023-03-22T05:32:04.078Z,6.55
2023-03-22T05:34:35.498Z,7.45
2023-03-22T05:37:02.689Z,6.63
2023-03-22T05:39:29.307Z,7.15
2023-03-22T05:41:55.730Z,6.47
2023-03-22T05:44:22.288Z,6.68
2023-03-22T05:46:48.687Z,7.28
2023-03-22T05:49:15.559Z,7.45
2023-03-22T05:51:42.626Z,7.13
2023-03-22T05:54:09.613Z,7.60
2023-03-22T05:56:37.042Z,6.57
2023-03-22T05:59:04.616Z,7.57
2023-03-22T06:01:31.342Z,6.97
2023-03-22T06:03:57.710Z,7.32
2023-03-22T06:06:24.128Z,7.47
2023-03-22T06:08:50.487Z,7.05
2023-03-22T06:11:18.718Z,7.70
2023-03-22T06:13:45.306Z,8.02
2023-03-22T06:16:11.708Z,7.40
2023-03-22T06:18:38.320Z,7.63
2023-03-22T06:21:05.233Z,7.30
2023-03-22T06:23:31.568Z,8.90
2023-03-22T06:25:58.148Z,8.10
2023-03-22T06:28:29.689Z,7.20
2023-03-22T06:30:56.519Z,6.93
2023-03-22T06:33:22.959Z,7.28
2023-03-22T06:35:49.572Z,7.57
2023-03-22T06:38:15.945Z,7.03
2023-03-22T06:40:42.510Z,7.95
2023-03-22T06:43:09.121Z,6.72
2023-03-22T06:45:35.974Z,6.55
2023-03-22T06:48:02.356Z,6.97
2023-03-22T06:50:29.131Z,7.47
2023-03-22T06:52:56.574Z,6.22
2023-03-22T06:55:23.385Z,6.93
2023-03-22T06:57:49.779Z,6.30
2023-03-22T07:00:16.680Z,7.43
2023-03-22T07:02:43.302Z,6.80
2023-03-22T07:05:10.415Z,6.68
2023-03-22T07:07:38.086Z,6.25
2023-03-22T07:10:05.549Z,6.30
2023-03-22T07:12:32.150Z,6.40
2023-03-22T07:14:59.297Z,6.25
2023-03-22T07:17:25.805Z,6.20
2023-03-22T07:19:52.476Z,5.82
2023-03-22T07:22:22.506Z,6.15
2023-03-22T07:24:56.706Z,5.75
2023-03-22T07:27:24.843Z,5.60
2023-03-22T07:29:53.434Z,5.80
2023-03-22T07:32:21.948Z,6.53
2023-03-22T07:34:48.309Z,5.50
2023-03-22T07:37:15.000Z,5.50
2023-03-22T07:39:41.585Z,5.45
2023-03-22T07:42:11.509Z,5.85
2023-03-22T07:44:38.379Z,5.97
2023-03-22T07:47:05.094Z,5.00
2023-03-22T07:49:31.504Z,5.05
2023-03-22T07:51:58.147Z,4.40
2023-03-22T07:54:33.480Z,4.32
2023-03-22T07:57:02.581Z,4.68
2023-03-22T07:59:31.703Z,4.63
2023-03-22T08:01:58.294Z,4.78
2023-03-22T08:04:25.040Z,4.55
2023-03-22T08:07:01.610Z,4.40
2023-03-22T08:09:28.533Z,4.45
2023-03-22T08:11:55.131Z,4.43
2023-03-22T08:14:27.459Z,4.05
2023-03-22T08:17:02.027Z,4.13
2023-03-22T08:19:31.491Z,4.10
2023-03-22T08:21:57.871Z,3.35
2023-03-22T08:24:24.244Z,3.50
2023-03-22T08:26:50.647Z,3.42
2023-03-22T08:29:17.823Z,3.25
2023-03-22T08:31:47.947Z,3.30
2023-03-22T08:34:14.406Z,3.03
2023-03-22T08:36:40.803Z,2.38
2023-03-22T08:39:14.533Z,2.47
2023-03-22T08:41:44.104Z,2.72
2023-03-22T08:44:11.376Z,2.30
2023-03-22T08:46:37.800Z,2.60
2023-03-22T08:49:04.446Z,2.63
2023-03-22T08:51:32.837Z,2.67
2023-03-22T08:54:00.435Z,2.25
2023-03-22T08:56:30.278Z,2.50
2023-03-22T08:58:58.878Z,2.20
2023-03-22T09:01:26.813Z,2.63
2023-03-22T09:03:54.786Z,2.50
2023-03-22T09:06:22.640Z,3.17
2023-03-22T09:08:52.439Z,2.30
2023-03-22T09:11:19.943Z,2.15
2023-03-22T09:13:48.098Z,2.10
2023-03-22T09:16:15.277Z,2.65
2023-03-22T09:18:44.033Z,2.60
2023-03-22T09:21:13.442Z,2.63
2023-03-22T09:23:42.939Z,2.15
2023-03-22T09:26:11.361Z,2.45
2023-03-22T09:28:38.344Z,2.00
2023-03-22T09:31:10.469Z,2.33
2023-03-22T09:33:41.483Z,2.00
2023-03-22T09:36:09.241Z,1.90
2023-03-22T09:38:36.816Z,1.90
2023-03-22T09:41:07.611Z,1.90
2023-03-22T09:43:41.729Z,2.55
2023-03-22T09:46:16.251Z,2.55
2023-03-22T09:48:44.390Z,2.55
2023-03-22T09:51:31.601Z,1.98
2023-03-22T09:53:58.038Z,1.92
2023-03-22T09:56:27.759Z,2.28
2023-03-22T09:59:06.173Z,2.47
2023-03-22T10:01:57.337Z,2.00
2023-03-22T10:04:36.922Z,2.70
2023-03-22T10:07:24.180Z,2.92
2023-03-22T10:10:09.037Z,2.55
2023-03-22T10:12:50.134Z,2.47
2023-03-22T10:15:32.375Z,2.78
2023-03-22T10:18:02.873Z,2.60
2023-03-22T10:20:51.635Z,3.00
2023-03-22T10:23:24.774Z,3.05
2023-03-22T10:25:52.893Z,2.53
2023-03-22T10:28:28.792Z,2.40
2023-03-22T10:30:57.603Z,2.58
2023-03-22T10:33:31.679Z,2.33
2023-03-22T10:36:02.583Z,2.30
2023-03-22T10:38:31.302Z,2.05
2023-03-22T10:40:59.778Z,2.55
2023-03-22T10:43:32.976Z,2.40
2023-03-22T10:46:03.143Z,2.67
2023-03-22T10:48:40.541Z,1.95
2023-03-22T10:51:07.761Z,1.80
2023-03-22T10:53:47.670Z,1.58
2023-03-22T10:56:18.608Z,1.60
2023-03-22T10:58:45.109Z,1.92
2023-03-22T11:01:14.745Z,1.80
2023-03-22T11:03:48.879Z,2.42
2023-03-22T11:06:19.613Z,1.80
2023-03-22T11:08:59.316Z,2.13
2023-03-22T11:11:29.250Z,2.00
2023-03-22T11:14:01.523Z,1.85
2023-03-22T11:16:29.561Z,2.35
2023-03-22T11:18:57.735Z,1.33
2023-03-22T11:21:34.160Z,1.45
2023-03-22T11:24:10.890Z,1.60
2023-03-22T11:26:40.738Z,1.50
2023-03-22T11:29:21.835Z,1.40
2023-03-22T11:31:55.901Z,1.40
2023-03-22T11:34:26.792Z,1.60
2023-03-22T11:36:59.152Z,1.80
2023-03-22T11:39:30.666Z,1.23
2023-03-22T11:42:01.785Z,1.30
2023-03-22T11:44:34.841Z,1.33
2023-03-22T11:47:04.663Z,1.25
2023-03-22T11:49:40.447Z,1.25
2023-03-22T11:52:18.951Z,1.20
2023-03-22T12:00:03.219Z,1.20
2023-03-22T12:02:33.279Z,1.40
2023-03-22T12:05:24.357Z,1.40
2023-03-22T12:08:05.955Z,1.85
2023-03-22T12:10:47.270Z,1.17
2023-03-22T12:13:27.956Z,0.95
2023-03-22T12:16:00.708Z,1.10
2023-03-22T12:18:57.531Z,1.23
2023-03-22T12:21:28.082Z,1.10
2023-03-22T12:24:02.157Z,1.10
2023-03-22T12:26:34.833Z,1.40
2023-03-22T12:29:08.113Z,1.10
2023-03-22T12:31:43.856Z,1.20
2023-03-22T12:34:17.438Z,1.02
2023-03-22T12:36:53.303Z,1.10
2023-03-22T12:39:31.720Z,1.10
2023-03-22T12:42:06.860Z,0.82
2023-03-22T12:44:38.098Z,1.00
2023-03-22T12:47:42.626Z,1.30
2023-03-22T12:50:18.423Z,1.20
2023-03-22T12:52:56.778Z,1.20
2023-03-22T12:55:36.855Z,1.40
2023-03-22T12:58:06.194Z,1.05
2023-03-22T13:00:47.128Z,1.20
2023-03-22T13:03:28.247Z,1.38
2023-03-22T13:06:34.338Z,1.30
2023-03-22T13:09:18.720Z,1.30
2023-03-22T13:11:53.207Z,1.20
2023-03-22T13:15:12.161Z,1.25
2023-03-22T13:17:43.468Z,1.25
2023-03-22T13:20:15.601Z,1.10
2023-03-22T13:22:55.596Z,1.20
2023-03-22T13:25:26.197Z,1.08
2023-03-22T13:30:57.262Z,1.17
2023-03-22T13:33:32.247Z,0.98
2023-03-22T13:36:12.620Z,1.20
2023-03-22T13:38:44.497Z,1.27
2023-03-22T13:41:15.125Z,1.13
2023-03-22T13:43:44.709Z,1.58
2023-03-22T13:46:41.780Z,1.88
2023-03-22T13:49:32.014Z,1.20
2023-03-22T13:52:10.048Z,1.55
2023-03-22T13:54:44.265Z,1.20
2023-03-22T13:57:37.777Z,1.15
2023-03-22T14:00:15.076Z,1.42
2023-03-22T14:02:45.982Z,1.30
2023-03-22T14:05:23.221Z,1.52
2023-03-22T14:07:56.148Z,1.20
2023-03-22T14:10:39.889Z,0.85
2023-03-22T14:13:29.476Z,1.55
2023-03-22T14:16:01.119Z,1.20
2023-03-22T14:18:32.739Z,1.35
2023-03-22T14:21:25.846Z,1.58
